Mena, Arkansas
Current Conditions -  °F | °C
As of 1:55 PM on Wednesday 28 Jan 2015 (Local Time) from KMEZ Reporting Station
Clear Clear  
Wind Chill: 73°   Ceiling: Unl
Heat Index: 73°   Visibility: 10mi
Dew Point: 43°   Wind: 3mph
Humidity: 33%   Direction: 220°SW
Pressure: 30.04"   Gusts: NA
Location:  34.59°N, 94.24°W
Report Text: KMEZ 281955Z AUTO 22003KT 10SM CLR 23/06 A3004 RMK AO2
Loading
Personal Weather Stations






























Interactive Weather Map New forecast layout! Learn more

10-Day Weather Forecast

Advertisements
Track Severe Weather on mobile